Time;durP1;ratioP1;P1;durP2;ratioP2;P2;SDS_P1;SDS_P2;PMS_P1;PMS_P2;Temp;Humidity;BMP_temperature;BMP_pressure;BME280_temperature;BME280_humidity;BME280_pressure;Samples;Min_cycle;Max_cycle;Signal;HPM_P1;HPM_P2
2021/01/29 00:00:43;;;;;;;8.75;4.70;;;;;;;-1.46;82.99;98641.42;1746194;81;21005;-48
2021/01/29 00:03:16;;;;;;;6.28;4.00;;;;;;;-1.46;83.12;98640.58;1746131;81;21154;-49
2021/01/29 00:05:51;;;;;;;7.03;3.90;;;;;;;-1.43;83.12;98645.13;1746437;81;21125;-49
2021/01/29 00:08:19;;;;;;;7.87;3.40;;;;;;;-1.42;83.09;98642.05;1746981;81;21383;-50
2021/01/29 00:10:49;;;;;;;7.30;3.92;;;;;;;-1.44;82.57;98649.95;1718975;81;21013;-49
2021/01/29 00:13:18;;;;;;;8.40;3.60;;;;;;;-1.51;82.40;98640.39;1735120;81;21007;-49
2021/01/29 00:15:46;;;;;;;8.43;3.62;;;;;;;-1.52;82.35;98641.80;1742574;81;20977;-49
2021/01/29 00:18:14;;;;;;;5.30;3.30;;;;;;;-1.54;82.36;98641.05;1740954;81;21605;-48
2021/01/29 00:20:42;;;;;;;5.08;2.95;;;;;;;-1.56;82.46;98635.13;1748418;81;21182;-48
2021/01/29 00:23:10;;;;;;;5.15;2.92;;;;;;;-1.57;82.06;98639.94;1733044;82;22025;-48
2021/01/29 00:25:42;;;;;;;7.08;3.85;;;;;;;-1.61;82.02;98630.23;1745546;81;21141;-48
2021/01/29 00:28:09;;;;;;;8.65;4.37;;;;;;;-1.65;81.71;98629.56;1748120;81;21625;-48
2021/01/29 00:30:37;;;;;;;6.17;3.77;;;;;;;-1.69;81.65;98618.18;1735621;82;21111;-48
2021/01/29 00:33:06;;;;;;;7.75;4.22;;;;;;;-1.73;81.63;98616.22;1732583;82;21439;-48
2021/01/29 00:35:34;;;;;;;5.90;3.52;;;;;;;-1.74;81.53;98610.66;1745919;81;21622;-48
2021/01/29 00:38:02;;;;;;;5.70;3.35;;;;;;;-1.78;81.33;98607.88;1782700;79;20975;-48
2021/01/29 00:40:30;;;;;;;6.78;3.45;;;;;;;-1.82;81.28;98606.39;1775138;80;21142;-48
2021/01/29 00:42:58;;;;;;;6.22;3.35;;;;;;;-1.87;81.39;98605.83;1761918;80;20973;-48
2021/01/29 00:45:29;;;;;;;5.58;3.02;;;;;;;-1.91;81.49;98610.83;1776828;80;22129;-48
2021/01/29 00:47:57;;;;;;;;;;;;;;;-1.98;81.68;98603.89;1764205;80;20960;-48
2021/01/29 00:50:25;;;;;;;7.33;3.77;;;;;;;-2.00;81.88;98596.19;1766803;80;20305;-48
2021/01/29 00:52:53;;;;;;;6.60;3.35;;;;;;;-2.04;82.12;98596.00;1770668;80;21138;-48
2021/01/29 00:55:22;;;;;;;5.65;3.05;;;;;;;-2.02;82.37;98593.34;1761584;80;21574;-48
2021/01/29 00:58:00;;;;;;;5.30;3.10;;;;;;;-2.01;82.51;98590.63;1855155;76;22737;-48
2021/01/29 01:00:33;;;;;;;6.90;3.45;;;;;;;-2.08;82.58;98590.63;1801378;77;21443;-48
2021/01/29 01:03:02;;;;;;;7.00;2.80;;;;;;;-2.11;82.79;98598.14;1762913;80;21146;-48
2021/01/29 01:05:30;;;;;;;4.75;3.80;;;;;;;-2.14;82.88;98589.72;1776846;78;21341;-48
2021/01/29 01:07:58;;;;;;;5.08;2.98;;;;;;;-2.15;83.15;98590.17;1744518;81;22094;-48
2021/01/29 01:10:44;;;;;;;6.92;3.15;;;;;;;-2.11;83.11;98590.36;1809722;76;29397;-48
2021/01/29 01:13:31;;;;;;;7.20;3.55;;;;;;;-2.19;83.20;98586.56;1801104;79;21512;-48
2021/01/29 01:16:17;;;;;;;5.37;3.20;;;;;;;-2.22;83.40;98595.34;1790026;79;21572;-48
2021/01/29 01:18:46;;;;;;;4.80;3.00;;;;;;;-2.20;83.55;98593.97;1793434;79;21095;-48
2021/01/29 01:21:16;;;;;;;5.42;2.42;;;;;;;-2.19;83.56;98587.86;1763256;79;21235;-48
2021/01/29 01:23:44;;;;;;;4.45;2.70;;;;;;;-2.18;83.65;98586.46;1781098;78;21078;-48
2021/01/29 01:26:13;;;;;;;5.85;3.40;;;;;;;-2.14;83.67;98591.02;1779716;79;22536;-48
2021/01/29 01:28:48;;;;;;;6.30;3.40;;;;;;;-2.14;83.51;98591.02;1792274;78;21192;-48
2021/01/29 01:31:17;;;;;;;7.65;4.05;;;;;;;-2.13;83.46;98586.20;1778592;79;21068;-48
2021/01/29 01:33:47;;;;;;;6.50;3.65;;;;;;;-2.16;83.29;98586.38;1801094;79;21085;-48
2021/01/29 01:36:32;;;;;;;7.28;4.10;;;;;;;-2.18;83.28;98589.53;1787013;79;21251;-48
2021/01/29 01:39:03;;;;;;;6.53;4.05;;;;;;;-2.23;83.15;98593.23;1768087;79;21196;-48
2021/01/29 01:41:31;;;;;;;7.30;3.58;;;;;;;-2.28;83.17;98586.18;1719039;81;21204;-48
2021/01/29 01:44:03;;;;;;;6.42;3.90;;;;;;;-2.33;82.99;98588.20;1729782;81;21937;-48
2021/01/29 01:46:40;;;;;;;5.87;3.17;;;;;;;-2.36;83.03;98585.79;1850995;74;29235;-48
2021/01/29 01:49:26;;;;;;;9.45;3.15;;;;;;;-2.44;83.07;98582.33;1841091;75;21214;-48
2021/01/29 01:52:21;;;;;;;6.03;3.37;;;;;;;-2.42;82.96;98583.55;1850141;74;22656;-48
2021/01/29 01:55:13;;;;;;;6.42;2.92;;;;;;;-2.52;82.55;98580.20;1837544;75;21683;-48
2021/01/29 01:57:47;;;;;;;7.20;3.10;;;;;;;-2.60;82.44;98577.66;1842336;75;21495;-48
2021/01/29 02:00:29;;;;;;;6.85;3.40;;;;;;;-2.65;82.41;98572.76;1816339;75;21212;-47
2021/01/29 02:03:04;;;;;;;7.40;3.55;;;;;;;-2.70;82.33;98574.77;1811136;75;21879;-47
2021/01/29 02:05:48;;;;;;;5.40;2.98;;;;;;;-2.69;82.46;98572.11;1866108;75;29759;-49
2021/01/29 02:08:18;;;;;;;6.87;3.00;;;;;;;-2.74;82.37;98575.87;1826637;77;21196;-47
2021/01/29 02:11:05;;;;;;;6.90;3.17;;;;;;;-2.75;82.12;98577.64;1845208;77;22915;-48
2021/01/29 02:13:34;;;;;;;7.67;3.80;;;;;;;-2.76;81.87;98576.42;1733709;81;21994;-48
2021/01/29 02:16:25;;;;;;;6.90;3.27;;;;;;;-2.77;81.73;98573.01;1761534;79;21026;-47
2021/01/29 02:19:20;;;;;;;5.25;3.27;;;;;;;-2.76;81.68;98574.67;1785599;79;20983;-48
2021/01/29 02:22:35;;;;;;;4.83;3.12;;;;;;;-2.77;81.40;98569.56;1781902;79;20978;-48
2021/01/29 02:25:37;;;;;;;5.08;2.83;;;;;;;-2.79;81.26;98572.27;1792881;79;21006;-48
2021/01/29 02:28:11;;;;;;;4.78;2.80;;;;;;;-2.80;81.14;98570.59;1792675;79;21620;-48
2021/01/29 02:31:21;;;;;;;5.03;2.60;;;;;;;-2.76;81.04;98569.50;1847524;76;22685;-48
2021/01/29 02:34:36;;;;;;;4.90;2.95;;;;;;;-2.82;80.95;98561.60;1808028;77;21476;-48
2021/01/29 02:37:22;;;;;;;4.42;2.58;;;;;;;-2.83;80.49;98563.81;1784489;77;21406;-48
2021/01/29 02:40:17;;;;;;;5.05;2.62;;;;;;;-2.87;80.04;98558.44;1833448;77;21068;-48
2021/01/29 02:42:54;;;;;;;6.50;2.80;;;;;;;-2.90;79.64;98556.02;1824782;77;21208;-48
2021/01/29 02:45:46;;;;;;;4.62;2.50;;;;;;;-2.93;79.23;98560.55;1806026;77;21074;-48
2021/01/29 02:49:05;;;;;;;4.75;2.85;;;;;;;-2.95;78.79;98545.56;1772432;77;22736;-48
2021/01/29 02:52:02;;;;;;;4.83;2.75;;;;;;;-3.03;78.67;98553.74;1733585;80;22372;-47
2021/01/29 02:55:03;;;;;;;6.70;3.08;;;;;;;-3.08;78.35;98552.72;1673407;84;21287;-47
2021/01/29 02:58:04;;;;;;;4.00;2.65;;;;;;;-3.11;78.18;98555.00;1753468;80;21086;-48
2021/01/29 03:00:55;;;;;;;6.57;2.67;;;;;;;-3.15;77.94;98553.98;1732851;80;21207;-47
2021/01/29 03:03:27;;;;;;;5.42;2.62;;;;;;;-3.22;77.75;98544.45;1751285;81;22566;-47
2021/01/29 03:06:02;;;;;;;5.92;2.95;;;;;;;-3.27;77.62;98552.45;1677152;82;20995;-48
2021/01/29 03:08:38;;;;;;;5.45;2.80;;;;;;;-3.29;77.47;98543.94;1704685;82;21392;-47
2021/01/29 03:11:38;;;;;;;5.33;2.45;;;;;;;-3.30;77.70;98542.73;1724745;81;22293;-48
2021/01/29 03:14:40;;;;;;;5.78;2.80;;;;;;;-3.29;77.46;98534.88;1724916;81;21027;-48
2021/01/29 03:17:50;;;;;;;5.08;2.95;;;;;;;-3.32;76.99;98538.92;1695224;83;21005;-48
2021/01/29 03:20:45;;;;;;;5.80;2.85;;;;;;;-3.36;76.95;98536.13;1724959;81;22052;-48
2021/01/29 03:23:40;;;;;;;6.28;3.08;;;;;;;-3.38;76.62;98534.09;1724697;81;21108;-48
2021/01/29 03:26:23;;;;;;;3.65;1.90;;;;;;;-3.39;76.45;98539.36;1798049;77;22754;-48
2021/01/29 03:29:13;;;;;;;5.47;2.50;;;;;;;-3.46;76.44;98533.23;1744246;80;22134;-48
2021/01/29 03:32:00;;;;;;;2.98;1.80;;;;;;;-3.48;76.33;98527.75;1709240;81;21390;-48
2021/01/29 03:34:56;;;;;;;3.52;1.92;;;;;;;-3.49;76.25;98538.57;1749850;80;21012;-48
2021/01/29 03:38:00;;;;;;;4.75;2.37;;;;;;;-3.53;76.24;98536.22;1728159;81;20941;-48
2021/01/29 03:40:32;;;;;;;4.05;2.22;;;;;;;-3.57;76.20;98532.98;1691991;80;21007;-48
2021/01/29 03:43:46;;;;;;;5.30;2.80;;;;;;;-3.61;76.06;98533.59;1704989;83;21059;-48
2021/01/29 03:47:02;;;;;;;4.83;2.58;;;;;;;-3.67;75.81;98535.69;1714573;83;21103;-48
2021/01/29 03:50:17;;;;;;;16.70;5.17;;;;;;;-3.72;75.67;98539.83;1751990;80;21011;-48
2021/01/29 03:53:30;;;;;;;7.33;3.02;;;;;;;-3.75;75.59;98543.86;1740519;80;21001;-48
2021/01/29 03:56:51;;;;;;;8.73;3.27;;;;;;;-3.77;75.32;98554.74;1685527;82;21131;-47
2021/01/29 04:00:17;;;;;;;7.15;2.85;;;;;;;-3.80;75.29;98552.32;1722452;81;21137;-48
2021/01/29 04:03:32;;;;;;;6.45;2.58;;;;;;;-3.86;74.97;98558.63;1722283;81;21206;-47
2021/01/29 04:06:27;;;;;;;7.00;2.75;;;;;;;-3.97;75.14;98556.62;1703321;82;21047;-48
2021/01/29 04:09:26;;;;;;;5.97;2.87;;;;;;;-4.02;75.35;98545.22;1685480;82;21153;-48
2021/01/29 04:12:15;;;;;;;4.87;2.58;;;;;;;-4.07;75.24;98544.63;1692766;81;21118;-48
2021/01/29 04:15:08;;;;;;;6.30;2.70;;;;;;;-4.06;75.30;98547.58;1778613;77;28494;-48
2021/01/29 04:17:59;;;;;;;4.12;2.45;;;;;;;-4.13;75.38;98550.10;1787201;79;21769;-48
2021/01/29 04:20:42;;;;;;;4.33;2.47;;;;;;;-4.10;75.41;98537.03;1828947;76;28902;-48
2021/01/29 04:23:24;;;;;;;8.43;3.85;;;;;;;-4.17;75.31;98534.38;1778364;79;21869;-48
2021/01/29 04:26:03;;;;;;;9.35;5.10;;;;;;;-4.17;74.93;98524.90;1757767;79;22374;-48
2021/01/29 04:28:33;;;;;;;10.28;4.35;;;;;;;-4.20;74.60;98526.34;1760826;79;21180;-48
2021/01/29 04:31:02;;;;;;;6.45;3.50;;;;;;;-4.20;74.76;98525.50;1794805;79;21564;-48
2021/01/29 04:33:34;;;;;;;6.40;3.05;;;;;;;-4.20;74.74;98525.50;1801086;78;21180;-48
2021/01/29 04:36:02;;;;;;;5.90;3.08;;;;;;;-4.19;74.40;98527.17;1767428;79;20998;-48
2021/01/29 04:38:38;;;;;;;5.20;2.80;;;;;;;-4.23;74.10;98522.63;1778398;79;21916;-48
2021/01/29 04:41:23;;;;;;;5.17;2.70;;;;;;;-4.31;74.07;98518.31;1771492;79;22049;-48
2021/01/29 04:44:19;;;;;;;5.08;2.52;;;;;;;-4.33;73.86;98523.58;1763869;79;21191;-48
2021/01/29 04:47:26;;;;;;;8.35;3.70;;;;;;;-4.39;73.57;98523.03;1764530;79;21468;-50
2021/01/29 04:50:13;;;;;;;5.60;2.77;;;;;;;-4.50;73.62;98523.59;1765124;79;21188;-47
2021/01/29 04:53:12;;;;;;;5.87;2.80;;;;;;;-4.61;73.99;98531.42;1761811;79;22585;-47
2021/01/29 04:56:05;;;;;;;5.85;3.40;;;;;;;-4.70;74.29;98530.59;1781349;79;21410;-47
2021/01/29 04:58:40;;;;;;;9.95;4.08;;;;;;;-4.76;74.59;98530.42;1774578;79;22409;-48
2021/01/29 05:02:01;;;;;;;8.18;4.55;;;;;;;-4.80;74.78;98524.21;1725074;80;21199;-47
2021/01/29 05:05:07;;;;;;;8.70;4.12;;;;;;;-4.83;75.02;98523.07;1768572;79;21205;-47
2021/01/29 05:08:09;;;;;;;9.45;4.70;;;;;;;-4.87;75.28;98537.03;1747461;80;21399;-47
2021/01/29 05:11:11;;;;;;;9.38;4.85;;;;;;;-4.88;75.62;98543.96;1731072;80;21212;-47
2021/01/29 05:14:24;;;;;;;10.45;5.08;;;;;;;-4.88;76.24;98545.25;1750789;80;21094;-48
2021/01/29 05:17:22;;;;;;;13.15;6.53;;;;;;;-4.81;76.64;98539.31;1758097;80;21180;-48
2021/01/29 05:20:04;;;;;;;12.88;7.00;;;;;;;-4.72;76.66;98542.73;1754398;79;21490;-48
2021/01/29 05:22:52;;;;;;;13.40;6.97;;;;;;;-4.64;76.81;98523.83;1738142;81;21637;-48
2021/01/29 05:26:04;;;;;;;12.68;6.47;;;;;;;-4.51;76.87;98519.34;1740922;81;22279;-48
2021/01/29 05:28:45;;;;;;;;;;;;;;;-4.42;76.87;98510.28;1744765;81;21002;-47
2021/01/29 05:32:05;;;;;;;15.03;7.40;;;;;;;-4.30;76.82;98514.37;1741077;81;20289;-47
2021/01/29 05:34:57;;;;;;;13.58;8.33;;;;;;;-4.22;76.86;98515.26;1740334;81;21002;-48
2021/01/29 05:37:48;;;;;;;18.23;7.92;;;;;;;-4.09;76.78;98524.48;1741676;81;21367;-47
2021/01/29 05:40:42;;;;;;;17.80;8.48;;;;;;;-4.02;76.66;98512.09;1725805;81;21142;-47
2021/01/29 05:44:02;;;;;;;19.65;8.90;;;;;;;-3.93;76.75;98506.44;1740928;81;20987;-47
2021/01/29 05:46:53;;;;;;;19.85;7.62;;;;;;;-3.82;76.67;98508.44;1742718;81;21113;-48
2021/01/29 05:49:26;;;;;;;15.68;8.38;;;;;;;-3.75;76.53;98494.74;1742011;81;21141;-48
2021/01/29 05:52:44;;;;;;;17.48;7.95;;;;;;;-3.72;76.29;98497.16;1733143;81;21188;-48
2021/01/29 05:55:40;;;;;;;27.55;10.58;;;;;;;-3.73;76.14;98492.43;1743337;81;22094;-47
2021/01/29 05:58:25;;;;;;;16.32;9.45;;;;;;;-3.72;76.07;98494.58;1719451;82;21933;-48
2021/01/29 06:01:13;;;;;;;17.52;10.35;;;;;;;-3.70;76.03;98490.13;1742670;81;22147;-47
2021/01/29 06:03:49;;;;;;;19.67;10.85;;;;;;;-3.73;75.88;98483.86;1720054;82;22130;-47
2021/01/29 06:06:57;;;;;;;17.77;10.00;;;;;;;-3.76;76.05;98485.31;1722037;82;21254;-48
2021/01/29 06:09:57;;;;;;;20.57;10.95;;;;;;;-3.78;76.10;98481.50;1720497;82;20964;-48
2021/01/29 06:13:08;;;;;;;22.10;12.37;;;;;;;-3.80;76.25;98469.59;1685767;84;22180;-48
2021/01/29 06:16:02;;;;;;;21.05;12.85;;;;;;;-3.82;76.48;98473.54;1699923;83;21149;-48
2021/01/29 06:18:50;;;;;;;22.65;11.80;;;;;;;-3.79;76.80;98464.33;1743721;81;21611;-48
2021/01/29 06:21:54;;;;;;;26.02;12.30;;;;;;;-3.78;77.05;98450.95;1733560;81;21388;-48
2021/01/29 06:25:10;;;;;;;23.35;13.90;;;;;;;-3.86;77.34;98457.82;1713957;81;22236;-48
2021/01/29 06:27:58;;;;;;;25.10;14.53;;;;;;;-3.93;77.93;98459.06;1729812;81;21902;-48
2021/01/29 06:30:40;;;;;;;25.88;14.63;;;;;;;-3.96;78.72;98461.37;1737450;81;21157;-48
2021/01/29 06:33:13;;;;;;;27.73;15.93;;;;;;;-3.94;79.31;98466.45;1733025;81;26816;-47
2021/01/29 06:36:07;;;;;;;26.65;16.15;;;;;;;-3.89;79.66;98466.59;1737563;81;21188;-47
2021/01/29 06:39:07;;;;;;;30.35;15.88;;;;;;;-3.81;79.82;98476.50;1739022;81;21138;-48
2021/01/29 06:42:20;;;;;;;27.17;15.23;;;;;;;-3.74;80.01;98473.95;1727925;81;20962;-47
2021/01/29 06:45:26;;;;;;;32.10;16.65;;;;;;;-3.73;80.29;98478.21;1726181;81;21140;-47
2021/01/29 06:48:27;;;;;;;33.23;18.42;;;;;;;-3.77;80.50;98479.30;1726619;81;22088;-47
2021/01/29 06:51:40;;;;;;;32.33;16.87;;;;;;;-3.75;80.88;98477.94;1736245;80;22076;-48
2021/01/29 06:54:13;;;;;;;36.28;19.85;;;;;;;-3.72;81.02;98482.47;1733863;81;21369;-48
2021/01/29 06:57:34;;;;;;;28.25;15.58;;;;;;;-3.70;81.39;98474.61;1773475;77;28339;-48
2021/01/29 07:00:19;;;;;;;29.10;16.62;;;;;;;-3.77;81.60;98475.42;1753742;80;21180;-48
2021/01/29 07:03:02;;;;;;;24.90;15.30;;;;;;;-3.82;82.02;98467.08;1679220;80;21666;-47
2021/01/29 07:06:05;;;;;;;34.03;17.77;;;;;;;-3.81;82.26;98464.87;1741343;80;21889;-47
2021/01/29 07:09:09;;;;;;;30.05;16.85;;;;;;;-3.77;82.38;98456.03;1739156;80;21247;-48
2021/01/29 07:12:26;;;;;;;30.57;16.15;;;;;;;-3.69;82.37;98450.89;1742244;81;21202;-47
2021/01/29 07:15:35;;;;;;;31.87;17.10;;;;;;;-3.64;82.04;98454.06;1738598;80;21088;-48
2021/01/29 07:18:27;;;;;;;31.48;15.98;;;;;;;-3.59;81.84;98449.00;1735567;80;21190;-47
2021/01/29 07:21:27;;;;;;;29.42;16.90;;;;;;;-3.54;81.40;98444.03;1742368;81;28435;-47
2021/01/29 07:24:16;;;;;;;34.33;18.50;;;;;;;-3.49;81.45;98445.90;1740881;80;22244;-48
2021/01/29 07:26:59;;;;;;;29.30;20.08;;;;;;;-3.39;81.13;98434.59;1843136;74;27844;-47
2021/01/29 07:29:49;;;;;;;33.00;19.12;;;;;;;-3.32;81.00;98432.85;1858421;74;21550;-47
2021/01/29 07:32:44;;;;;;;32.42;18.48;;;;;;;-3.18;80.66;98444.98;1824045;75;21640;-48
2021/01/29 07:35:39;;;;;;;32.63;19.05;;;;;;;-3.12;80.39;98431.70;1813361;75;21218;-47
2021/01/29 07:38:43;;;;;;;33.67;19.05;;;;;;;-3.08;80.13;98421.17;1811254;75;21058;-47
2021/01/29 07:41:50;;;;;;;32.85;18.90;;;;;;;-3.07;79.97;98420.25;1807977;75;21689;-48
2021/01/29 07:44:35;;;;;;;36.03;18.50;;;;;;;-3.02;80.08;98418.23;1789315;75;21163;-48
2021/01/29 07:47:24;;;;;;;35.58;20.82;;;;;;;-2.96;79.89;98419.16;1808214;77;21264;-48
2021/01/29 07:50:00;;;;;;;33.95;19.48;;;;;;;-2.93;79.75;98424.64;1748505;78;21232;-49
2021/01/29 07:52:57;;;;;;;34.67;20.20;;;;;;;-2.88;79.74;98432.97;1795196;77;21895;-49
2021/01/29 07:55:26;;;;;;;41.08;21.50;;;;;;;-2.83;79.80;98416.23;1794630;77;21217;-49
2021/01/29 07:58:17;;;;;;;36.08;19.65;;;;;;;-2.76;79.66;98419.75;1747863;78;21575;-49
2021/01/29 08:01:16;;;;;;;33.40;19.90;;;;;;;-2.70;79.60;98418.94;1796718;77;21371;-48
2021/01/29 08:04:16;;;;;;;37.55;20.25;;;;;;;-2.62;79.53;98424.09;1802885;78;21212;-48
2021/01/29 08:07:13;;;;;;;34.65;20.23;;;;;;;-2.54;79.58;98433.53;1781146;78;21181;-49
2021/01/29 08:09:39;;;;;;;30.72;18.98;;;;;;;-2.48;79.69;98429.77;1782032;78;22031;-48
2021/01/29 08:12:12;;;;;;;33.40;18.98;;;;;;;-2.38;79.94;98435.58;1789766;78;21193;-48
2021/01/29 08:15:28;;;;;;;25.82;15.60;;;;;;;-2.33;80.01;98415.87;1748410;79;22482;-48
2021/01/29 08:18:14;;;;;;;33.00;17.12;;;;;;;-2.34;80.14;98415.51;1785173;78;21254;-49
2021/01/29 08:21:21;;;;;;;24.82;15.15;;;;;;;-2.33;80.71;98416.33;1772354;78;21185;-49
2021/01/29 08:24:06;;;;;;;34.78;18.37;;;;;;;-2.32;80.77;98412.36;1781268;78;22520;-49
2021/01/29 08:26:50;;;;;;;36.65;19.12;;;;;;;-2.37;80.85;98413.92;1765064;79;21215;-48
2021/01/29 08:30:07;;;;;;;31.90;17.82;;;;;;;-2.38;81.25;98407.55;1720642;81;21206;-49
2021/01/29 08:33:20;;;;;;;30.72;21.02;;;;;;;-2.24;81.67;98410.13;1863988;75;27845;-48
2021/01/29 08:36:13;;;;;;;35.75;20.05;;;;;;;-2.22;81.69;98403.55;1785762;77;22173;-47
2021/01/29 08:39:19;;;;;;;34.33;18.98;;;;;;;-2.17;81.68;98409.75;1829375;77;21337;-48
2021/01/29 08:42:24;;;;;;;33.42;19.90;;;;;;;-2.12;81.84;98409.83;1842181;77;22122;-48
2021/01/29 08:45:09;;;;;;;31.77;18.17;;;;;;;-2.11;81.71;98408.05;1846752;77;21541;-48
2021/01/29 08:48:00;;;;;;;33.05;19.85;;;;;;;-2.09;82.10;98407.48;1843839;77;21593;-48
2021/01/29 08:50:56;;;;;;;;;;;;;;;-2.09;81.89;98407.48;1844896;77;21094;-48
2021/01/29 08:54:18;;;;;;;29.42;17.50;;;;;;;-2.11;81.94;98409.34;1836857;77;22059;-48
2021/01/29 08:57:23;;;;;;;32.98;18.25;;;;;;;-2.09;82.49;98399.71;1830800;77;20983;-48
2021/01/29 08:59:51;;;;;;;31.55;18.12;;;;;;;-2.09;82.49;98399.71;1849839;77;20975;-48
2021/01/29 09:02:40;;;;;;;36.03;21.15;;;;;;;-2.10;82.51;98404.08;1715731;80;21146;-48
2021/01/29 09:05:11;;;;;;;39.33;19.77;;;;;;;-2.11;82.79;98403.71;1765322;79;22004;-47
2021/01/29 09:07:41;;;;;;;32.17;18.17;;;;;;;-2.01;83.13;98400.06;1781035;78;22735;-47
2021/01/29 09:10:41;;;;;;;35.65;20.35;;;;;;;-1.97;82.93;98392.94;1785751;78;22107;-47
2021/01/29 09:13:16;;;;;;;37.03;19.92;;;;;;;-1.89;83.21;98391.15;1771360;80;20991;-47
2021/01/29 09:16:17;;;;;;;37.55;20.55;;;;;;;-1.80;82.96;98398.35;1779868;80;20995;-48
2021/01/29 09:18:52;;;;;;;;;;;;;;;-1.76;82.68;98395.92;1782865;80;20983;-48
2021/01/29 09:21:46;;;;;;;35.65;19.80;;;;;;;-1.70;82.68;98400.72;1744745;80;21483;-48
2021/01/29 09:24:53;;;;;;;28.30;17.48;;;;;;;-1.70;82.25;98398.61;1771853;78;21007;-48
2021/01/29 09:27:49;;;;;;;31.17;18.45;;;;;;;-1.69;82.31;98404.98;1782470;78;21022;-48
2021/01/29 09:30:33;;;;;;;30.90;17.20;;;;;;;-1.71;81.92;98404.25;1784383;79;21871;-48
2021/01/29 09:33:46;;;;;;;29.40;16.65;;;;;;;-1.70;82.15;98402.50;1766182;79;21142;-47
2021/01/29 09:36:28;;;;;;;33.10;16.87;;;;;;;-1.66;81.94;98397.01;1734151;81;21390;-47
2021/01/29 09:39:14;;;;;;;33.02;17.73;;;;;;;-1.58;81.97;98387.42;1730934;81;21256;-47
2021/01/29 09:42:06;;;;;;;30.45;16.77;;;;;;;-1.52;81.59;98387.50;1752767;81;21168;-47
2021/01/29 09:44:59;;;;;;;27.30;15.43;;;;;;;-1.50;81.28;98379.16;1758331;81;21142;-48
2021/01/29 09:47:40;;;;;;;31.85;17.80;;;;;;;-1.45;81.09;98380.14;1835132;76;22631;-48
2021/01/29 09:50:09;;;;;;;23.27;14.53;;;;;;;-1.51;81.12;98382.20;1802807;78;20924;-48
2021/01/29 09:53:01;;;;;;;28.95;16.42;;;;;;;-1.42;81.45;98379.94;1784645;79;21388;-48
2021/01/29 09:55:57;;;;;;;29.90;18.52;;;;;;;-1.35;81.21;98368.22;1735986;82;21014;-49
2021/01/29 09:59:01;;;;;;;27.77;16.93;;;;;;;-1.29;81.21;98373.02;1728727;81;20943;-48
2021/01/29 10:01:37;;;;;;;27.05;16.85;;;;;;;-1.15;81.15;98370.81;1735493;81;22078;-49
2021/01/29 10:04:34;;;;;;;30.25;16.32;;;;;;;-1.02;80.94;98371.27;1712206;81;20955;-48
2021/01/29 10:07:08;;;;;;;33.53;17.42;;;;;;;-0.92;80.64;98365.81;1693886;82;22206;-48
2021/01/29 10:09:39;;;;;;;29.77;17.30;;;;;;;-0.88;80.17;98362.08;1714289;82;22237;-48
2021/01/29 10:12:14;;;;;;;28.47;16.60;;;;;;;-0.87;79.93;98354.65;1718843;82;21007;-48
2021/01/29 10:15:05;;;;;;;27.30;15.90;;;;;;;-0.84;80.08;98360.94;1722544;82;22246;-49
2021/01/29 10:17:45;;;;;;;26.57;16.12;;;;;;;-0.70;80.10;98348.77;1706024;82;22128;-50
2021/01/29 10:20:25;;;;;;;31.73;17.05;;;;;;;-0.57;79.92;98341.79;1711236;83;22729;-48
2021/01/29 10:23:22;;;;;;;29.37;17.23;;;;;;;-0.47;79.46;98344.11;1689829;84;21176;-49
2021/01/29 10:26:23;;;;;;;29.05;16.93;;;;;;;-0.34;79.59;98340.17;1711452;83;21991;-48
2021/01/29 10:29:12;;;;;;;;;;;;;;;-0.20;78.88;98344.88;1714216;83;21003;-48
2021/01/29 10:32:08;;;;;;;27.27;16.07;;;;;;;-0.14;78.53;98333.22;1719669;83;20984;-48
2021/01/29 10:35:00;;;;;;;29.48;17.15;;;;;;;-0.07;78.34;98334.44;1696820;82;21348;-48
2021/01/29 10:37:36;;;;;;;25.68;14.73;;;;;;;0.05;78.81;98326.21;1691323;82;21148;-48
2021/01/29 10:40:30;;;;;;;24.98;15.88;;;;;;;0.33;78.61;98326.33;1707223;82;20986;-49
2021/01/29 10:43:24;;;;;;;29.15;15.85;;;;;;;0.51;78.19;98325.91;1707885;82;21151;-50
2021/01/29 10:46:06;;;;;;;27.00;15.38;;;;;;;0.75;77.59;98325.84;1703637;82;21078;-49
2021/01/29 10:48:58;;;;;;;24.52;15.38;;;;;;;0.93;76.46;98324.11;1708773;82;21372;-48
2021/01/29 10:51:41;;;;;;;25.08;15.28;;;;;;;1.00;75.51;98315.72;1725787;82;21128;-48
2021/01/29 10:54:10;;;;;;;23.42;13.85;;;;;;;1.07;74.92;98312.62;1699118;82;21034;-48
2021/01/29 10:56:58;;;;;;;22.60;13.75;;;;;;;1.15;73.32;98310.25;1703569;82;21978;-48
2021/01/29 10:59:30;;;;;;;27.70;13.98;;;;;;;1.16;71.51;98312.76;1696326;82;22101;-48
2021/01/29 11:02:00;;;;;;;;;;;;;;;1.26;70.67;98318.08;1710133;82;22498;-48
2021/01/29 11:04:38;;;;;;;;;;;;;;;1.38;69.47;98312.41;1696552;82;20232;-48
2021/01/29 11:07:09;;;;;;;27.77;13.70;;;;;;;1.49;69.45;98310.73;1722247;82;20215;-48
2021/01/29 11:09:38;;;;;;;24.70;13.22;;;;;;;1.60;68.97;98316.76;1717219;82;22115;-48
2021/01/29 11:12:36;;;;;;;19.05;11.43;;;;;;;1.84;69.06;98320.98;1696436;82;21161;-48
2021/01/29 11:15:20;;;;;;;17.98;10.65;;;;;;;2.16;66.54;98308.41;1718025;82;22189;-48
2021/01/29 11:18:01;;;;;;;23.02;12.00;;;;;;;2.40;65.37;98319.12;1722991;82;21035;-48
2021/01/29 11:20:35;;;;;;;20.60;10.05;;;;;;;2.58;62.60;98313.34;1706260;82;22437;-48
2021/01/29 11:23:31;;;;;;;17.50;9.80;;;;;;;2.56;62.25;98312.63;1699671;82;22008;-49
2021/01/29 11:26:24;;;;;;;17.87;10.90;;;;;;;2.60;61.50;98316.19;1699031;82;21121;-49
2021/01/29 11:29:22;;;;;;;18.48;10.40;;;;;;;2.65;61.14;98310.56;1721132;82;21439;-48
2021/01/29 11:32:24;;;;;;;15.65;9.00;;;;;;;2.69;60.84;98310.66;1722322;82;21030;-49
2021/01/29 11:35:10;;;;;;;15.43;8.85;;;;;;;2.83;60.36;98302.16;1722575;82;21019;-49
2021/01/29 11:37:49;;;;;;;15.18;8.58;;;;;;;2.85;57.84;98310.20;1707949;82;21157;-49
2021/01/29 11:40:31;;;;;;;17.35;7.30;;;;;;;2.72;57.93;98308.25;1722371;82;22121;-48
2021/01/29 11:43:30;;;;;;;13.05;7.03;;;;;;;2.63;57.21;98312.02;1722380;82;21412;-49
2021/01/29 11:46:17;;;;;;;11.25;6.40;;;;;;;2.48;56.68;98303.65;1692792;82;21960;-49
2021/01/29 11:48:54;;;;;;;10.03;6.28;;;;;;;2.24;55.10;98318.70;1689199;84;20987;-49
2021/01/29 11:51:36;;;;;;;11.38;6.17;;;;;;;2.06;55.65;98315.36;1699819;82;22255;-49
2021/01/29 11:54:15;;;;;;;12.33;6.35;;;;;;;2.02;55.91;98322.59;1725655;82;21406;-49
2021/01/29 11:57:08;;;;;;;12.03;6.47;;;;;;;1.98;56.16;98317.75;1732581;81;22570;-49
2021/01/29 11:59:53;;;;;;;11.68;6.00;;;;;;;1.88;56.39;98321.09;1747127;81;20980;-49
2021/01/29 12:02:32;;;;;;;14.80;6.95;;;;;;;1.79;57.14;98320.98;1728421;81;21146;-49
2021/01/29 12:05:36;;;;;;;12.75;7.15;;;;;;;1.79;56.48;98320.98;1716878;81;20987;-49
2021/01/29 12:08:30;;;;;;;16.45;7.50;;;;;;;1.74;56.44;98322.66;1728568;81;21090;-49
2021/01/29 12:11:12;;;;;;;10.75;5.90;;;;;;;1.69;55.89;98328.72;1739094;81;21220;-48
2021/01/29 12:14:01;;;;;;;13.40;7.20;;;;;;;1.72;56.05;98329.30;1755276;80;21007;-49
2021/01/29 12:16:29;;;;;;;11.97;6.45;;;;;;;1.79;55.79;98324.44;1730273;81;21000;-50
2021/01/29 12:18:57;;;;;;;15.23;8.78;;;;;;;1.83;56.18;98328.92;1711743;81;20985;-49
2021/01/29 12:21:48;;;;;;;12.93;7.12;;;;;;;1.86;55.68;98328.67;1727247;81;20999;-50
2021/01/29 12:24:36;;;;;;;12.63;6.75;;;;;;;1.80;54.07;98330.47;1738194;81;21192;-49
2021/01/29 12:27:23;;;;;;;14.75;6.50;;;;;;;1.52;54.27;98343.09;1736958;81;21955;-49
2021/01/29 12:30:01;;;;;;;11.90;6.70;;;;;;;1.24;54.91;98334.31;1736770;81;21126;-50
2021/01/29 12:32:49;;;;;;;10.75;6.12;;;;;;;1.00;55.48;98344.38;1728240;80;22178;-49
2021/01/29 12:35:25;;;;;;;13.08;6.47;;;;;;;0.89;55.38;98346.97;1721023;83;21560;-50
2021/01/29 12:38:06;;;;;;;14.13;6.95;;;;;;;0.79;56.36;98344.20;1692754;83;21270;-50
2021/01/29 12:40:41;;;;;;;14.85;7.05;;;;;;;0.75;57.07;98343.27;1710253;83;21662;-50
2021/01/29 12:43:42;;;;;;;14.03;7.15;;;;;;;0.73;57.75;98349.41;1736753;80;22085;-50
2021/01/29 12:46:26;;;;;;;11.73;6.75;;;;;;;0.73;57.70;98342.91;1740778;81;21133;-49
2021/01/29 12:48:59;;;;;;;12.93;7.15;;;;;;;0.74;57.94;98345.02;1758406;80;20928;-49
2021/01/29 12:51:47;;;;;;;13.65;7.22;;;;;;;0.72;57.45;98346.45;1755816;80;21629;-49
2021/01/29 12:54:32;;;;;;;12.00;6.58;;;;;;;0.61;57.42;98346.42;1749777;80;22996;-49
2021/01/29 12:57:04;;;;;;;14.05;6.25;;;;;;;0.48;57.32;98344.36;1692935;82;22017;-49
2021/01/29 12:59:35;;;;;;;;;;;;;;;0.34;57.47;98348.80;1704518;83;22063;-50
2021/01/29 13:02:21;;;;;;;12.13;6.25;;;;;;;0.25;58.20;98359.43;1727913;82;20185;-50
2021/01/29 13:04:52;;;;;;;10.75;6.25;;;;;;;0.18;58.74;98362.11;1690805;83;21764;-49